Wilmington, Delaware
Current Conditions -  °F | °C
As of 11:15 AM on Thursday 23 Oct 2014 (Local Time) from KILG Reporting Station
Light Rain Light Rain  
Wind Chill: 54°   Ceiling: 6500
Heat Index: 54°   Visibility: 2.5mi
Dew Point: 46°   Wind: 20mph
Humidity: 75%   Direction: 330°NNW
Pressure: 29.81"   Gusts: 28mph
Location:  39.74°N, 75.55°W
Report Text: KILG 231515Z 33017G24KT 2 1/2SM -RA BKN065 OVC080 12/08 A2981 RMK AO2 P0000 T01220078
Loading
Personal Weather Stations






























Interactive Weather Map New forecast layout! Learn more

10-Day Weather Forecast

Advertisements
Track Severe Weather on mobile